Keansburg, New Jersey
Current Conditions -  °F | °C
As of 5:35 AM on Tuesday 27 Jan 2015 (Local Time) from KLDJ Reporting Station
Light Snow Light Snow  
Wind Chill: 14°   Ceiling: 900
Heat Index: 25°   Visibility: 1.7mi
Dew Point: 21°   Wind: 14mph
Humidity: 84%   Direction: 360°N
Pressure: 29.7"   Gusts: 23mph
Location:  40.44°N, 74.13°W
Report Text: KLDJ 271035Z AUTO 36012G20KT 1 3/4SM -SN OVC009 M04/M06 A2970 RMK AO2 P0001 T10371060
Loading
Personal Weather Stations






























Interactive Weather Map New forecast layout! Learn more

10-Day Weather Forecast

Advertisements
Track Severe Weather on mobile